Time;durP1;ratioP1;P1;durP2;ratioP2;P2;SDS_P1;SDS_P2;PMS_P1;PMS_P2;Temp;Humidity;BMP_temperature;BMP_pressure;BME280_temperature;BME280_humidity;BME280_pressure;Samples;Min_cycle;Max_cycle;Signal;HPM_P1;HPM_P2
2022/12/20 00:01:33;;;;;;;;;17.67;9.33;;;;;12.49;100.00;101255.97;5028848;28;45371;-74
2022/12/20 00:04:01;;;;;;;;;8.00;8.00;;;;;12.46;100.00;101250.84;5040394;28;46967;-74
2022/12/20 00:06:27;;;;;;;;;12.33;11.67;;;;;12.47;100.00;101258.00;5034042;28;45479;-74
2022/12/20 00:08:55;;;;;;;;;10.33;8.67;;;;;12.46;100.00;101245.38;5035518;28;45303;-74
2022/12/20 00:11:20;;;;;;;;;14.00;10.67;;;;;12.48;100.00;101262.44;5039207;28;45371;-74
2022/12/20 00:13:46;;;;;;;;;13.00;11.33;;;;;12.46;100.00;101239.94;5030293;28;46246;-74
2022/12/20 00:16:15;;;;;;;;;10.33;7.67;;;;;12.45;100.00;101238.22;5029947;28;45627;-73
2022/12/20 00:18:41;;;;;;;;;15.00;12.00;;;;;12.46;100.00;101231.75;5041599;28;45298;-75
2022/12/20 00:21:09;;;;;;;;;10.33;10.33;;;;;12.46;100.00;101229.03;5036545;28;45616;-74
2022/12/20 00:23:35;;;;;;;;;10.00;10.00;;;;;12.45;100.00;101227.31;5035417;28;45550;-73
2022/12/20 00:26:05;;;;;;;;;13.00;10.67;;;;;12.44;100.00;101225.59;5037127;28;45453;-73
2022/12/20 00:28:31;;;;;;;;;13.00;13.00;;;;;12.38;100.00;101222.59;5037531;28;45268;-73
2022/12/20 00:30:56;;;;;;;;;11.33;10.33;;;;;12.37;100.00;101219.00;5041025;28;45501;-74
2022/12/20 00:33:22;;;;;;;;;10.33;10.33;;;;;12.28;100.00;101211.72;5040591;28;48464;-74
2022/12/20 00:35:47;;;;;;;;;6.33;5.00;;;;;12.27;100.00;101229.06;5033026;28;45383;-74
2022/12/20 00:38:13;;;;;;;;;7.67;7.67;;;;;12.19;100.00;101211.78;5035705;28;45607;-74
2022/12/20 00:40:39;;;;;;;;;12.67;11.33;;;;;12.10;100.00;101205.34;5037528;28;45413;-74
2022/12/20 00:43:04;;;;;;;;;10.67;10.67;;;;;12.10;100.00;101205.34;5037727;28;47594;-75
2022/12/20 00:45:29;;;;;;;;;9.00;9.00;;;;;12.06;100.00;101193.00;5027935;28;45436;-74
2022/12/20 00:47:55;;;;;;;;;11.00;10.67;;;;;12.07;100.00;101197.44;5035974;28;45436;-75
2022/12/20 00:50:20;;;;;;;;;9.33;9.33;;;;;12.07;100.00;101198.31;5039158;28;45777;-75
2022/12/20 00:52:45;;;;;;;;;9.67;8.00;;;;;12.09;100.00;101201.75;5028978;28;47055;-75
2022/12/20 00:55:11;;;;;;;;;12.00;9.33;;;;;12.11;100.00;101206.19;5035788;28;45175;-75
2022/12/20 00:57:36;;;;;;;;;8.33;6.00;;;;;12.12;100.00;101214.22;5034422;28;45234;-75
2022/12/20 01:00:03;;;;;;;;;6.67;6.67;;;;;12.12;100.00;101216.94;5038848;28;45421;-75
2022/12/20 01:02:28;;;;;;;;;6.67;6.67;;;;;12.15;100.00;101208.47;5031060;28;45452;-75
2022/12/20 01:04:53;;;;;;;;;9.33;9.00;;;;;12.12;100.00;101208.78;5037035;28;45488;-76
2022/12/20 01:07:19;;;;;;;;;10.67;8.00;;;;;12.13;100.00;101209.63;5031127;28;45235;-75
2022/12/20 01:09:44;;;;;;;;;10.00;9.00;;;;;12.17;100.00;101211.03;5039010;28;45774;-75
2022/12/20 01:12:10;;;;;;;;;7.00;6.50;;;;;12.19;100.00;101211.78;5033493;28;45255;-75
2022/12/20 01:14:35;;;;;;;;;7.00;7.00;;;;;12.20;100.00;101217.03;5039604;28;45496;-73
2022/12/20 01:17:01;;;;;;;;;10.33;9.00;;;;;12.19;100.00;101212.63;5045082;28;45390;-74
2022/12/20 01:19:26;;;;;;;;;9.00;9.00;;;;;12.19;100.00;101209.91;5040796;28;45419;-75
2022/12/20 01:21:51;;;;;;;;;7.33;7.33;;;;;12.18;100.00;101200.00;5051207;28;48507;-74
2022/12/20 01:24:18;;;;;;;;;5.00;5.00;;;;;12.19;100.00;101201.72;5042835;28;45302;-75
2022/12/20 01:26:44;;;;;;;;;11.00;9.00;;;;;12.15;100.00;101202.16;5037587;28;45483;-75
2022/12/20 01:29:10;;;;;;;;;12.00;9.33;;;;;12.20;100.00;101206.16;5043203;28;45605;-74
2022/12/20 01:31:36;;;;;;;;;6.67;6.67;;;;;12.22;100.00;101201.41;5038373;28;46741;-74
2022/12/20 01:34:02;;;;;;;;;12.00;10.33;;;;;12.18;100.00;101199.16;5041664;28;45370;-74
2022/12/20 01:36:32;;;;;;;;;11.00;7.67;;;;;12.19;100.00;101204.47;5043621;28;45385;-75
2022/12/20 01:39:01;;;;;;;;;8.00;6.67;;;;;12.17;100.00;101206.47;5044358;28;45445;-74
2022/12/20 01:41:28;;;;;;;;;9.33;8.33;;;;;12.21;100.00;101191.53;5030469;28;47424;-73
2022/12/20 01:43:59;;;;;;;;;7.67;7.67;;;;;12.25;100.00;101200.28;5044690;28;45228;-75
2022/12/20 01:46:28;;;;;;;;;7.00;7.00;;;;;12.28;100.00;101211.72;5030644;28;45446;-73
2022/12/20 01:49:18;;;;;;;;;6.00;6.00;;;;;12.28;100.00;101208.13;5045541;28;45302;-74
2022/12/20 01:51:47;;;;;;;;;6.67;6.67;;;;;12.33;100.00;101193.09;5040521;28;45469;-74
2022/12/20 01:54:15;;;;;;;;;6.00;6.00;;;;;12.29;100.00;101180.75;5043648;28;45240;-74
2022/12/20 01:56:44;;;;;;;;;6.00;6.00;;;;;12.34;100.00;101192.06;5038265;28;45437;-74
2022/12/20 01:59:09;;;;;;;;;5.67;5.33;;;;;12.30;100.00;101192.50;5036305;28;45485;-73
2022/12/20 02:01:35;;;;;;;;;8.00;7.67;;;;;12.31;100.00;101199.69;5028974;28;45347;-74
2022/12/20 02:04:00;;;;;;;;;2.00;2.00;;;;;12.31;100.00;101200.53;5037129;28;45299;-74
2022/12/20 02:06:26;;;;;;;;;5.00;5.00;;;;;12.34;100.00;101196.66;5039220;28;45477;-74
2022/12/20 02:08:56;;;;;;;;;8.00;6.33;;;;;12.28;100.00;101203.53;5037444;28;45215;-73
2022/12/20 02:11:44;;;;;;;;;6.33;6.33;;;;;12.29;100.00;101213.44;5038853;28;45445;-73
2022/12/20 02:14:48;;;;;;;;;6.33;6.00;;;;;12.35;100.00;101212.84;5038916;28;45484;-74
2022/12/20 02:17:32;;;;;;;;;8.00;7.00;;;;;12.34;100.00;101213.88;5042109;28;45417;-74
2022/12/20 02:20:10;;;;;;;;;7.67;6.00;;;;;12.36;100.00;101217.28;5038565;28;45421;-74
2022/12/20 02:22:56;;;;;;;;;12.00;10.00;;;;;12.28;100.00;101209.00;5035575;28;46016;-74
2022/12/20 02:25:28;;;;;;;;;7.00;7.00;;;;;12.31;100.00;101195.09;5038344;28;45251;-74
2022/12/20 02:27:59;;;;;;;;;8.00;6.00;;;;;12.29;100.00;101199.81;5038502;28;45319;-75
2022/12/20 02:30:32;;;;;;;;;11.67;8.00;;;;;12.21;100.00;101202.41;5038822;28;45389;-74
2022/12/20 02:33:07;;;;;;;;;8.00;5.00;;;;;12.29;100.00;101193.50;5039116;28;46343;-74
2022/12/20 02:35:36;;;;;;;;;7.67;7.33;;;;;12.29;100.00;101190.78;5037459;28;45430;-74
2022/12/20 02:38:24;;;;;;;;;7.67;6.00;;;;;12.23;100.00;101181.34;5035333;28;45390;-74
2022/12/20 02:40:56;;;;;;;;;8.33;7.00;;;;;12.22;100.00;101170.59;5036350;28;45537;-74
2022/12/20 02:46:11;;;;;;;;;8.33;7.67;;;;;12.13;100.00;101161.44;5031788;28;45456;-73
2022/12/20 02:48:38;;;;;;;;;8.33;6.33;;;;;12.12;100.00;101162.47;5042580;28;46337;-74
2022/12/20 02:51:05;;;;;;;;;6.00;6.00;;;;;12.05;100.00;101151.28;5039832;28;45491;-74
2022/12/20 02:53:31;;;;;;;;;5.00;5.00;;;;;12.15;100.00;101170.31;5041939;28;48021;-74
2022/12/20 02:56:01;;;;;;;;;4.00;4.00;;;;;12.14;100.00;101160.44;5037311;28;45480;-74
2022/12/20 02:58:30;;;;;;;;;11.00;10.33;;;;;12.09;100.00;101146.41;5034937;28;45145;-74
2022/12/20 03:01:03;;;;;;;;;5.67;5.67;;;;;12.07;100.00;101129.34;5037924;28;45523;-74
2022/12/20 03:03:32;;;;;;;;;8.33;6.00;;;;;12.09;100.00;101143.69;5040245;28;45268;-74
2022/12/20 03:05:58;;;;;;;;;8.33;7.00;;;;;12.00;100.00;101144.56;5025911;28;45447;-74
2022/12/20 03:08:24;;;;;;;;;7.67;6.67;;;;;11.92;100.00;101130.84;5033348;28;45394;-74
2022/12/20 03:10:51;;;;;;;;;8.67;8.67;;;;;11.92;100.00;101139.00;5040638;28;45319;-74
2022/12/20 03:13:17;;;;;;;;;5.67;5.33;;;;;11.91;100.00;101134.56;5026105;28;45418;-74
2022/12/20 03:15:42;;;;;;;;;7.67;7.67;;;;;11.90;100.00;101138.31;5033691;28;45404;-74
2022/12/20 03:18:08;;;;;;;;;7.00;7.00;;;;;11.88;100.00;101129.44;5035477;28;45419;-74
2022/12/20 03:20:34;;;;;;;;;4.00;2.33;;;;;11.84;100.00;101136.16;5036241;28;45442;-74
2022/12/20 03:22:59;;;;;;;;;8.33;8.33;;;;;11.77;100.00;101137.75;5036530;28;45623;-74
2022/12/20 03:25:24;;;;;;;;;6.00;6.00;;;;;11.78;100.00;101142.19;5040277;28;45339;-74
2022/12/20 03:27:50;;;;;;;;;6.33;5.67;;;;;11.81;100.00;101142.78;5037646;28;45406;-74
2022/12/20 03:30:15;;;;;;;;;6.00;6.00;;;;;11.78;100.00;101145.78;5039685;28;45319;-74
2022/12/20 03:32:41;;;;;;;;;9.00;7.00;;;;;11.79;100.00;101142.06;5038385;28;46651;-74
2022/12/20 03:35:07;;;;;;;;;6.00;5.33;;;;;11.79;100.00;101133.03;5039677;28;45417;-74
2022/12/20 03:37:32;;;;;;;;;7.00;6.67;;;;;11.78;100.00;101134.88;5038670;28;45354;-74
2022/12/20 03:39:58;;;;;;;;;8.33;6.33;;;;;11.77;100.00;101140.47;5040082;28;45672;-74
2022/12/20 03:42:23;;;;;;;;;10.00;7.00;;;;;11.78;100.00;101150.38;5035524;28;45486;-74
2022/12/20 03:44:49;;;;;;;;;6.67;6.67;;;;;11.70;100.00;101149.19;5039512;28;45546;-74
2022/12/20 03:47:14;;;;;;;;;7.33;6.67;;;;;11.73;100.00;101147.19;5037933;28;45983;-74
2022/12/20 03:49:40;;;;;;;;;7.00;5.00;;;;;11.70;100.00;101132.88;5038736;28;45446;-74
2022/12/20 03:52:05;;;;;;;;;7.00;5.00;;;;;11.75;100.00;101132.47;5040942;28;45314;-74
2022/12/20 03:54:31;;;;;;;;;10.00;7.00;;;;;11.71;100.00;101123.69;5040342;28;45492;-74
2022/12/20 03:56:56;;;;;;;;;9.00;7.00;;;;;11.65;100.00;101124.28;5036286;28;45372;-74
2022/12/20 03:59:21;;;;;;;;;7.67;6.33;;;;;11.75;100.00;101131.63;5035466;28;45176;-74
2022/12/20 04:01:47;;;;;;;;;6.00;6.00;;;;;11.73;100.00;101119.97;5025642;28;45623;-74
2022/12/20 04:04:14;;;;;;;;;6.33;6.00;;;;;11.78;100.00;101123.13;5038623;28;45285;-74
2022/12/20 04:06:40;;;;;;;;;6.33;6.33;;;;;11.77;100.00;101125.00;5033732;28;45196;-74
2022/12/20 04:09:05;;;;;;;;;9.67;7.00;;;;;11.69;100.00;101113.94;5036077;28;45541;-74
2022/12/20 04:11:31;;;;;;;;;4.00;4.00;;;;;11.75;100.00;101115.28;5033594;28;46861;-74
2022/12/20 04:13:56;;;;;;;;;7.00;7.00;;;;;11.76;100.00;101108.84;5036444;28;45284;-74
2022/12/20 04:16:24;;;;;;;;;7.67;6.33;;;;;11.80;100.00;101107.53;5034458;28;45267;-74
2022/12/20 04:18:50;;;;;;;;;7.00;5.67;;;;;11.69;100.00;101087.59;5051609;28;44913;-75
2022/12/20 04:21:20;;;;;;;;;6.00;4.00;;;;;11.77;100.00;101094.19;5036215;28;46348;-74
2022/12/20 04:23:45;;;;;;;;;6.33;4.67;;;;;11.74;100.00;101092.66;5037201;28;45180;-74
2022/12/20 04:26:12;;;;;;;;;4.33;4.33;;;;;11.75;100.00;101096.22;5037065;28;45394;-74
2022/12/20 04:28:37;;;;;;;;;6.00;5.00;;;;;11.76;100.00;101092.50;5042850;28;45468;-75
2022/12/20 04:31:02;;;;;;;;;6.67;5.33;;;;;11.73;100.00;101090.91;5030967;28;45572;-74
2022/12/20 04:33:29;;;;;;;;;6.00;6.00;;;;;11.81;100.00;101080.16;5035290;28;45442;-75
2022/12/20 04:35:54;;;;;;;;;5.00;5.00;;;;;11.76;100.00;101078.91;5032602;28;45642;-74
2022/12/20 04:38:20;;;;;;;;;6.00;5.00;;;;;11.77;100.00;101095.06;5037294;28;45485;-74
2022/12/20 04:40:50;;;;;;;;;7.00;5.00;;;;;11.78;100.00;101095.91;5032223;28;46260;-74
2022/12/20 04:43:17;;;;;;;;;4.00;4.00;;;;;11.82;100.00;101097.34;5037709;28;45485;-74
2022/12/20 04:45:43;;;;;;;;;4.33;4.33;;;;;11.82;100.00;101087.31;5037400;28;45465;-74
2022/12/20 04:48:09;;;;;;;;;5.67;5.67;;;;;11.82;100.00;101081.03;5039397;28;45330;-73
2022/12/20 04:50:34;;;;;;;;;5.00;5.00;;;;;11.87;100.00;101097.75;5038782;28;45541;-74
2022/12/20 04:55:43;;;;;;;;;4.00;4.00;;;;;11.83;100.00;101074.56;5035409;28;45251;-74
2022/12/20 04:58:09;;;;;;;;;4.00;4.00;;;;;11.88;100.00;101080.41;5035669;28;45278;-75
2022/12/20 05:00:34;;;;;;;;;4.00;4.00;;;;;11.79;100.00;101067.69;5036017;28;46299;-75
2022/12/20 05:03:00;;;;;;;;;2.67;2.33;;;;;11.89;100.00;101084.88;5035324;28;45303;-75
2022/12/20 05:05:25;;;;;;;;;8.67;6.33;;;;;11.80;100.00;101075.72;5041290;28;45453;-75
2022/12/20 05:07:52;;;;;;;;;5.33;3.00;;;;;11.87;100.00;101095.91;5037225;28;45553;-75
2022/12/20 05:10:17;;;;;;;;;5.00;5.00;;;;;11.82;100.00;101081.03;5039168;28;48353;-75
2022/12/20 05:12:43;;;;;;;;;6.00;4.00;;;;;11.90;100.00;101073.84;5036837;28;45378;-75
2022/12/20 05:15:10;;;;;;;;;3.33;3.33;;;;;11.93;100.00;101075.38;5042304;28;45434;-75
2022/12/20 05:17:35;;;;;;;;;5.33;5.00;;;;;11.96;100.00;101073.22;5037866;28;45553;-75
2022/12/20 05:20:01;;;;;;;;;6.00;5.00;;;;;11.88;100.00;101053.19;5038811;28;45411;-75
2022/12/20 05:27:55;;;;;;;;;4.00;4.00;;;;;12.07;100.00;101055.81;5045716;28;45319;-75
2022/12/20 05:30:21;;;;;;;;;3.00;3.00;;;;;12.09;100.00;101059.25;5038023;28;45274;-73
2022/12/20 05:32:47;;;;;;;;;4.00;4.00;;;;;12.10;100.00;101055.53;5033814;28;45438;-74
2022/12/20 05:35:12;;;;;;;;;3.00;3.00;;;;;12.10;100.00;101066.44;5041400;28;45511;-76
2022/12/20 05:37:37;;;;;;;;;1.67;1.67;;;;;12.09;100.00;101068.28;5040019;28;45283;-74
2022/12/20 05:40:03;;;;;;;;;5.00;5.00;;;;;12.15;100.00;101055.06;5041532;28;45583;-74
2022/12/20 05:42:29;;;;;;;;;4.00;4.00;;;;;12.19;100.00;101061.94;5033504;28;45413;-74
2022/12/20 05:44:54;;;;;;;;;4.00;4.00;;;;;12.16;100.00;101045.91;5042757;28;45410;-76
2022/12/20 05:47:20;;;;;;;;;3.00;3.00;;;;;12.22;100.00;101061.63;5034847;28;45298;-75
2022/12/20 05:49:45;;;;;;;;;4.00;3.00;;;;;12.23;100.00;101063.34;5041841;28;47670;-74
2022/12/20 05:52:11;;;;;;;;;3.00;3.00;;;;;12.28;100.00;101050.97;5035192;28;45349;-73
2022/12/20 05:54:36;;;;;;;;;4.67;4.33;;;;;12.27;100.00;101053.88;5041950;28;45332;-73
2022/12/20 05:57:02;;;;;;;;;12.00;7.00;;;;;12.30;100.00;101048.09;5030793;28;45157;-74
2022/12/20 05:59:27;;;;;;;;;2.67;2.67;;;;;12.27;100.00;101032.91;5035323;28;46686;-74
2022/12/20 06:01:53;;;;;;;;;4.00;4.00;;;;;12.29;100.00;101051.84;5036531;28;45358;-74
2022/12/20 06:04:19;;;;;;;;;3.67;3.67;;;;;12.34;100.00;101052.25;5037925;28;45520;-73
2022/12/20 06:06:45;;;;;;;;;4.00;4.00;;;;;12.38;100.00;101053.66;5037827;28;45557;-73
2022/12/20 06:09:10;;;;;;;;;4.33;3.00;;;;;12.36;100.00;101048.34;5038845;28;45671;-73
2022/12/20 06:11:36;;;;;;;;;3.67;3.33;;;;;12.42;100.00;101038.69;5032984;28;45762;-74
2022/12/20 06:14:02;;;;;;;;;3.00;3.00;;;;;12.40;100.00;101048.91;5038450;28;45394;-75
2022/12/20 06:16:27;;;;;;;;;2.00;2.00;;;;;12.39;100.00;101063.56;5036642;28;45288;-76
2022/12/20 06:18:53;;;;;;;;;4.33;3.00;;;;;12.35;100.00;101043.91;5038384;28;46677;-75
2022/12/20 06:21:18;;;;;;;;;3.00;3.00;;;;;12.52;100.00;101052.28;5037821;28;45544;-74
2022/12/20 06:23:43;;;;;;;;;3.00;1.67;;;;;12.56;100.00;101056.44;5037322;28;45653;-76
2022/12/20 06:26:09;;;;;;;;;7.33;5.67;;;;;12.53;100.00;101056.72;5038125;28;45394;-75
2022/12/20 06:28:41;;;;;;;;;4.00;4.00;;;;;12.54;100.00;101064.75;5037472;28;46087;-73
2022/12/20 06:31:07;;;;;;;;;2.33;2.33;;;;;12.60;100.00;101066.84;5032028;28;45516;-74
2022/12/20 06:33:33;;;;;;;;;4.00;2.00;;;;;12.58;100.00;101068.00;5038122;28;45243;-74
2022/12/20 06:35:58;;;;;;;;;4.00;4.00;;;;;12.60;100.00;101066.84;5033210;28;45600;-74
2022/12/20 06:38:24;;;;;;;;;7.00;3.00;;;;;12.57;100.00;101072.59;5039798;28;45384;-73
2022/12/20 06:40:49;;;;;;;;;3.33;3.00;;;;;12.60;100.00;101066.84;5033641;28;45561;-74
2022/12/20 06:43:15;;;;;;;;;3.00;3.00;;;;;12.61;100.00;101065.84;5038477;28;45386;-73
2022/12/20 06:45:40;;;;;;;;;4.33;3.00;;;;;12.58;100.00;101059.81;5035311;28;45612;-75
2022/12/20 06:48:06;;;;;;;;;3.33;3.33;;;;;12.62;100.00;101059.38;5039238;28;47658;-75
2022/12/20 06:50:31;;;;;;;;;4.00;4.00;;;;;12.62;100.00;101069.44;5040327;28;45282;-74
2022/12/20 06:52:57;;;;;;;;;4.00;4.00;;;;;12.59;100.00;101073.31;5034507;28;45221;-73
2022/12/20 06:55:22;;;;;;;;;3.00;3.00;;;;;12.64;100.00;101075.59;5035729;28;45458;-74
2022/12/20 06:57:47;;;;;;;;;3.33;2.00;;;;;12.62;100.00;101075.75;5037341;28;45593;-74
2022/12/20 07:00:13;;;;;;;;;3.33;2.67;;;;;12.63;100.00;101060.25;5040885;28;45305;-75
2022/12/20 07:02:39;;;;;;;;;4.00;4.00;;;;;12.66;100.00;101066.22;5025424;28;45507;-74
2022/12/20 07:05:05;;;;;;;;;3.00;3.00;;;;;12.67;100.00;101064.38;5032281;28;45253;-75
2022/12/20 07:07:30;;;;;;;;;2.00;2.00;;;;;12.70;100.00;101061.34;5026880;28;47912;-74
2022/12/20 07:09:55;;;;;;;;;4.00;4.00;;;;;12.61;100.00;101044.03;5027273;28;45441;-74
2022/12/20 07:12:21;;;;;;;;;4.00;4.00;;;;;12.71;100.00;101069.34;5039847;28;45210;-74
2022/12/20 07:14:48;;;;;;;;;5.00;4.67;;;;;12.77;100.00;101079.66;5039888;28;45298;-75
2022/12/20 07:17:13;;;;;;;;;4.00;4.00;;;;;12.70;100.00;101058.63;5040857;28;48061;-74
2022/12/20 07:19:38;;;;;;;;;6.33;3.67;;;;;12.76;100.00;101066.19;5040505;28;45516;-74
2022/12/20 07:22:04;;;;;;;;;3.00;3.00;;;;;12.79;100.00;101066.69;5030142;28;45905;-75
2022/12/20 07:24:30;;;;;;;;;5.67;2.67;;;;;12.73;100.00;101061.03;5042263;28;45359;-75
2022/12/20 07:26:57;;;;;;;;;4.00;4.00;;;;;12.76;100.00;101063.44;5036696;28;46185;-75
2022/12/20 07:29:24;;;;;;;;;4.33;3.00;;;;;12.79;100.00;101060.41;5038268;28;45797;-73
2022/12/20 07:31:50;;;;;;;;;4.67;3.33;;;;;12.82;100.00;101055.50;5027994;28;45448;-73
2022/12/20 07:34:15;;;;;;;;;3.00;3.00;;;;;12.78;100.00;101061.44;5039844;28;45315;-75
2022/12/20 07:36:40;;;;;;;;;4.67;4.00;;;;;12.83;100.00;101057.22;5032809;28;46453;-74
2022/12/20 07:39:06;;;;;;;;;3.00;3.00;;;;;12.87;100.00;101065.94;5042051;28;45396;-74
2022/12/20 07:41:31;;;;;;;;;4.33;3.00;;;;;12.83;100.00;101057.22;5032140;28;45398;-74
2022/12/20 07:43:58;;;;;;;;;3.67;3.33;;;;;12.86;100.00;101065.06;5041459;28;45276;-74
2022/12/20 07:46:23;;;;;;;;;5.67;3.00;;;;;12.84;100.00;101058.09;5029637;28;45575;-74
2022/12/20 07:48:50;;;;;;;;;5.00;4.00;;;;;12.80;100.00;101057.50;5042361;28;45421;-74
2022/12/20 07:51:26;;;;;;;;;3.00;3.00;;;;;12.87;100.00;101058.59;5037688;28;45377;-75
2022/12/20 07:54:03;;;;;;;;;3.67;3.67;;;;;12.75;100.00;101045.38;5037314;28;45446;-75
2022/12/20 07:56:33;;;;;;;;;3.00;3.00;;;;;12.85;100.00;101059.78;5041443;28;47782;-75
2022/12/20 07:59:00;;;;;;;;;2.67;2.67;;;;;12.83;100.00;101056.38;5035560;28;45335;-74
2022/12/20 08:01:28;;;;;;;;;3.00;3.00;;;;;12.86;100.00;101062.34;5032281;28;45307;-74
2022/12/20 08:03:59;;;;;;;;;3.33;3.33;;;;;12.88;100.00;101065.78;5039904;28;45512;-74
2022/12/20 08:06:25;;;;;;;;;2.00;2.00;;;;;12.82;100.00;101054.63;5036195;28;45402;-74
2022/12/20 08:08:56;;;;;;;;;4.00;3.67;;;;;12.90;100.00;101062.91;5034060;28;45268;-75
2022/12/20 08:11:23;;;;;;;;;3.33;3.00;;;;;12.90;100.00;101071.09;5030834;28;45452;-75
2022/12/20 08:13:50;;;;;;;;;5.00;4.00;;;;;12.91;100.00;101069.22;5042439;28;45542;-74
2022/12/20 08:16:16;;;;;;;;;3.00;3.00;;;;;12.96;100.00;101067.72;5034216;28;45490;-74
2022/12/20 08:18:41;;;;;;;;;2.00;1.00;;;;;12.87;100.00;101046.84;5033715;28;45193;-74
2022/12/20 08:21:07;;;;;;;;;3.00;3.00;;;;;12.97;100.00;101052.22;5034796;28;45549;-73
2022/12/20 08:23:32;;;;;;;;;4.00;4.00;;;;;12.88;100.00;101051.28;5033786;28;45477;-76
2022/12/20 08:26:01;;;;;;;;;4.33;3.00;;;;;12.96;100.00;101067.72;5037029;28;45572;-73
2022/12/20 08:28:26;;;;;;;;;6.00;4.00;;;;;12.91;100.00;101059.16;5041166;28;45698;-77
2022/12/20 08:30:52;;;;;;;;;3.00;3.00;;;;;12.98;100.00;101054.81;5036339;28;45315;-75
2022/12/20 08:33:17;;;;;;;;;4.00;4.00;;;;;12.94;100.00;101058.84;5031402;28;45381;-74
2022/12/20 08:35:42;;;;;;;;;9.00;8.67;;;;;12.98;100.00;101056.66;5037351;28;46906;-75
2022/12/20 08:38:08;;;;;;;;;7.00;6.00;;;;;12.97;100.00;101058.53;5037678;28;45319;-73
2022/12/20 08:40:33;;;;;;;;;4.33;4.33;;;;;12.99;100.00;101064.69;5034090;28;45464;-73
2022/12/20 08:42:58;;;;;;;;;4.67;4.00;;;;;13.00;100.00;101052.78;5036788;28;45304;-74
2022/12/20 08:45:24;;;;;;;;;4.00;4.00;;;;;12.93;100.00;101057.13;5034072;28;47753;-75
2022/12/20 08:47:49;;;;;;;;;3.00;1.33;;;;;12.92;100.00;101049.97;5040482;28;45444;-74
2022/12/20 08:50:15;;;;;;;;;3.00;2.00;;;;;12.98;100.00;101054.81;5034400;28;45343;-74
2022/12/20 08:52:40;;;;;;;;;3.00;3.00;;;;;13.00;100.00;101049.19;5034082;28;45460;-75
2022/12/20 08:55:06;;;;;;;;;4.00;2.67;;;;;13.02;100.00;101050.72;5035750;28;45566;-74
2022/12/20 08:57:31;;;;;;;;;4.67;4.00;;;;;13.02;100.00;101066.25;5033440;28;45227;-74
2022/12/20 08:59:57;;;;;;;;;4.00;4.00;;;;;13.03;100.00;101057.91;5038252;28;45242;-74
2022/12/20 09:02:22;;;;;;;;;5.00;3.00;;;;;12.96;100.00;101053.22;5030995;28;45462;-75
2022/12/20 09:04:47;;;;;;;;;4.00;4.00;;;;;12.99;100.00;101056.53;5036718;28;46185;-74
2022/12/20 09:07:13;;;;;;;;;4.67;3.33;;;;;13.05;100.00;101057.75;5034051;28;45239;-74
2022/12/20 09:09:38;;;;;;;;;4.33;4.00;;;;;13.08;100.00;101073.78;5023625;28;45229;-75
2022/12/20 09:12:04;;;;;;;;;4.00;2.67;;;;;13.01;100.00;101068.09;5040139;28;45644;-74
2022/12/20 09:14:29;;;;;;;;;4.00;4.00;;;;;13.06;100.00;101073.97;5037832;28;46890;-74
2022/12/20 09:16:55;;;;;;;;;9.33;4.33;;;;;13.04;100.00;101076.00;5029298;28;45291;-74
2022/12/20 09:19:20;;;;;;;;;6.33;3.33;;;;;13.13;100.00;101080.56;5035462;28;45323;-74
2022/12/20 09:21:45;;;;;;;;;6.33;5.00;;;;;13.08;100.00;101087.44;5034218;28;45378;-74
2022/12/20 09:24:11;;;;;;;;;3.67;2.67;;;;;13.03;100.00;101077.00;5038911;28;45370;-76
2022/12/20 09:26:37;;;;;;;;;4.67;4.33;;;;;12.98;100.00;101071.16;5033508;28;45325;-74
2022/12/20 09:29:04;;;;;;;;;3.33;3.00;;;;;12.87;100.00;101066.78;5038598;28;45453;-74
2022/12/20 09:31:29;;;;;;;;;3.67;3.00;;;;;12.90;100.00;101084.72;5026790;28;45444;-74
2022/12/20 09:33:57;;;;;;;;;4.33;2.00;;;;;12.87;100.00;101076.84;5039673;28;46182;-76
2022/12/20 09:36:25;;;;;;;;;4.33;3.00;;;;;12.89;100.00;101088.47;5032066;28;45544;-77
2022/12/20 09:38:51;;;;;;;;;3.00;3.00;;;;;12.79;100.00;101077.63;5030836;28;45502;-74
2022/12/20 09:41:28;;;;;;;;;3.00;0.00;;;;;12.85;100.00;101078.88;5039790;28;45685;-75
2022/12/20 09:43:54;;;;;;;;;10.00;8.00;;;;;12.78;100.00;101085.97;5038245;28;45760;-74
2022/12/20 09:46:21;;;;;;;;;3.00;3.00;;;;;12.69;100.00;101087.75;5033071;28;45761;-74
2022/12/20 09:48:47;;;;;;;;;4.00;2.67;;;;;12.53;100.00;101089.44;5038111;28;45251;-74
2022/12/20 09:51:25;;;;;;;;;8.33;4.00;;;;;12.52;100.00;101093.16;5037401;28;45664;-74
2022/12/20 09:54:12;;;;;;;;;5.00;5.00;;;;;12.44;100.00;101092.06;5040844;28;46238;-74
2022/12/20 09:57:00;;;;;;;;;3.33;3.33;;;;;12.36;100.00;101072.00;5042663;28;45461;-75
2022/12/20 09:59:26;;;;;;;;;3.00;3.00;;;;;12.30;100.00;101070.75;5023172;28;45462;-74
2022/12/20 10:01:52;;;;;;;;;3.00;3.00;;;;;12.25;100.00;101066.78;5035645;28;45236;-75
2022/12/20 10:04:27;;;;;;;;;4.00;4.00;;;;;12.19;100.00;101087.31;5038391;28;46333;-74
2022/12/20 10:07:14;;;;;;;;;7.00;6.00;;;;;12.15;100.00;101085.03;5035569;28;45408;-74
2022/12/20 10:10:01;;;;;;;;;1.00;1.00;;;;;12.14;100.00;101080.59;5040569;28;45433;-75
2022/12/20 10:12:55;;;;;;;;;6.00;6.00;;;;;12.15;100.00;101066.81;5029148;28;45456;-74
2022/12/20 10:15:27;;;;;;;;;5.00;4.67;;;;;12.11;100.00;101059.97;5039771;28;45459;-74
2022/12/20 10:18:24;;;;;;;;;5.67;3.33;;;;;12.12;100.00;101055.38;5048511;28;45290;-74
2022/12/20 10:21:43;;;;;;;;;6.00;4.67;;;;;12.15;100.00;101076.84;5037077;28;45512;-75
2022/12/20 10:24:30;;;;;;;;;3.00;3.00;;;;;12.19;100.00;101079.16;5032662;28;45525;-74
2022/12/20 10:27:01;;;;;;;;;4.67;3.00;;;;;12.15;100.00;101071.41;5038756;28;45501;-74
2022/12/20 10:29:28;;;;;;;;;3.00;2.33;;;;;12.12;100.00;101071.72;5042592;28;45477;-74
2022/12/20 10:31:59;;;;;;;;;5.00;5.00;;;;;12.02;100.00;101063.59;5030692;28;45334;-75
2022/12/20 10:34:24;;;;;;;;;4.67;4.67;;;;;12.11;100.00;101065.44;5043117;28;45240;-76
2022/12/20 10:37:14;;;;;;;;;4.00;4.00;;;;;12.12;100.00;101058.13;5034754;28;46490;-75
2022/12/20 10:39:46;;;;;;;;;5.33;5.00;;;;;12.18;100.00;101071.13;5041181;28;47242;-73
2022/12/20 10:42:26;;;;;;;;;3.00;3.00;;;;;12.21;100.00;101060.75;5038467;28;45472;-74
2022/12/20 10:44:53;;;;;;;;;5.00;4.00;;;;;12.13;100.00;101057.09;5038423;28;45560;-73
2022/12/20 10:47:39;;;;;;;;;5.33;4.00;;;;;12.13;100.00;101047.03;5029279;28;46233;-74
2022/12/20 10:50:20;;;;;;;;;4.00;4.00;;;;;12.17;100.00;101059.38;5036516;28;45513;-74
2022/12/20 10:53:03;;;;;;;;;5.33;5.33;;;;;12.10;100.00;101055.53;5035929;28;45396;-74
2022/12/20 10:55:39;;;;;;;;;5.00;5.00;;;;;12.17;100.00;101064.81;5030953;28;45430;-74
2022/12/20 10:58:20;;;;;;;;;8.67;6.00;;;;;12.18;100.00;101066.53;5042670;28;45891;-74
2022/12/20 11:00:48;;;;;;;;;10.00;7.00;;;;;12.11;100.00;101054.53;5036475;28;45442;-74
2022/12/20 11:03:18;;;;;;;;;5.00;5.00;;;;;12.21;100.00;101058.03;5034470;28;45330;-74
2022/12/20 11:06:02;;;;;;;;;5.67;5.67;;;;;12.16;100.00;101052.19;5035715;28;45511;-75
2022/12/20 11:08:31;;;;;;;;;7.33;7.33;;;;;12.17;100.00;101042.16;5036156;28;47050;-75
2022/12/20 11:11:20;;;;;;;;;6.33;5.67;;;;;12.25;100.00;101053.16;5041185;28;45575;-75
2022/12/20 11:13:48;;;;;;;;;8.00;6.67;;;;;12.27;100.00;101043.81;5033993;28;45339;-75
2022/12/20 11:16:40;;;;;;;;;5.33;2.00;;;;;12.28;100.00;101050.13;5035944;28;45541;-74
2022/12/20 11:19:17;;;;;;;;;11.33;9.00;;;;;12.26;100.00;101053.03;5038462;28;45446;-74
2022/12/20 11:22:05;;;;;;;;;10.67;7.33;;;;;12.27;100.00;101051.16;5036418;28;45326;-74
2022/12/20 11:24:36;;;;;;;;;11.00;6.33;;;;;12.22;100.00;101042.56;5030495;28;45426;-76
2022/12/20 11:27:08;;;;;;;;;11.33;9.00;;;;;12.22;100.00;101048.88;5025408;28;45391;-76
2022/12/20 11:29:57;;;;;;;;;12.67;11.00;;;;;12.13;100.00;101038.03;5030872;28;46604;-76
2022/12/20 11:32:37;;;;;;;;;8.00;6.67;;;;;12.16;100.00;101035.84;5029983;28;45416;-75
2022/12/20 11:35:06;;;;;;;;;8.33;7.00;;;;;12.12;100.00;101029.00;5044652;28;45342;-76